<?xml version="1.0" encoding="UTF-8" standalone="no" ?>
<gpx xmlns="http://www.topografix.com/GPX/1/1" creator="CompeGPS" version="1.1" xmlns:xsi="http://www.w3.org/2001/XMLSchema-instance" xsi:schemaLocation="http://www.topografix.com/GPX/1/1 http://www.topografix.com/GPX/1/1/gpx.xsd">
  <metadata>
    <link href="http://www.compegps.com">
      <text>CompeGPS TEAM, SL</text>
    </link>
    <time>2021-09-05T08:10:41Z</time>
    <bounds maxlat="36.957428" maxlon="-3.316400" minlat="36.936651" minlon="-3.330032"/>
  </metadata>
  <trk>
    <name>Chorrerón de Pitres, tajo Cortés y cascadas</name>
    <trkseg>
      <trkpt lat="36.936651" lon="-3.323569">
        <ele>1203.7</ele>
        <time>2021-09-04T07:42:15Z</time>
      </trkpt>
      <trkpt lat="36.936838" lon="-3.323574">
        <ele>1206.1</ele>
        <time>2021-09-04T07:42:57Z</time>
      </trkpt>
      <trkpt lat="36.937116" lon="-3.323468">
        <ele>1210.0</ele>
        <time>2021-09-04T07:44:13Z</time>
      </trkpt>
      <trkpt lat="36.937196" lon="-3.323208">
        <ele>1212.8</ele>
        <time>2021-09-04T07:44:34Z</time>
      </trkpt>
      <trkpt lat="36.937291" lon="-3.323005">
        <ele>1213.8</ele>
        <time>2021-09-04T07:44:57Z</time>
      </trkpt>
      <trkpt lat="36.937324" lon="-3.322737">
        <ele>1215.7</ele>
        <time>2021-09-04T07:45:18Z</time>
      </trkpt>
      <trkpt lat="36.937343" lon="-3.322491">
        <ele>1219.1</ele>
        <time>2021-09-04T07:45:35Z</time>
      </trkpt>
      <trkpt lat="36.937475" lon="-3.322291">
        <ele>1219.1</ele>
        <time>2021-09-04T07:45:54Z</time>
      </trkpt>
      <trkpt lat="36.937676" lon="-3.322201">
        <ele>1221.0</ele>
        <time>2021-09-04T07:46:16Z</time>
      </trkpt>
      <trkpt lat="36.937855" lon="-3.322297">
        <ele>1227.3</ele>
        <time>2021-09-04T07:46:35Z</time>
      </trkpt>
      <trkpt lat="36.938022" lon="-3.322462">
        <ele>1224.9</ele>
        <time>2021-09-04T07:46:57Z</time>
      </trkpt>
      <trkpt lat="36.938285" lon="-3.322611">
        <ele>1228.2</ele>
        <time>2021-09-04T07:47:23Z</time>
      </trkpt>
      <trkpt lat="36.938554" lon="-3.322727">
        <ele>1231.1</ele>
        <time>2021-09-04T07:47:50Z</time>
      </trkpt>
      <trkpt lat="36.938852" lon="-3.322758">
        <ele>1234.0</ele>
        <time>2021-09-04T07:48:16Z</time>
      </trkpt>
      <trkpt lat="36.939025" lon="-3.322610">
        <ele>1234.5</ele>
        <time>2021-09-04T07:48:34Z</time>
      </trkpt>
      <trkpt lat="36.939184" lon="-3.322455">
        <ele>1235.4</ele>
        <time>2021-09-04T07:48:50Z</time>
      </trkpt>
      <trkpt lat="36.939329" lon="-3.322299">
        <ele>1235.9</ele>
        <time>2021-09-04T07:49:04Z</time>
      </trkpt>
      <trkpt lat="36.939512" lon="-3.322176">
        <ele>1237.4</ele>
        <time>2021-09-04T07:49:19Z</time>
      </trkpt>
      <trkpt lat="36.939701" lon="-3.322111">
        <ele>1239.8</ele>
        <time>2021-09-04T07:49:36Z</time>
      </trkpt>
      <trkpt lat="36.939976" lon="-3.322120">
        <ele>1240.7</ele>
        <time>2021-09-04T07:50:06Z</time>
      </trkpt>
      <trkpt lat="36.940165" lon="-3.321982">
        <ele>1242.6</ele>
        <time>2021-09-04T07:50:22Z</time>
      </trkpt>
      <trkpt lat="36.940274" lon="-3.321777">
        <ele>1242.6</ele>
        <time>2021-09-04T07:50:37Z</time>
      </trkpt>
      <trkpt lat="36.940413" lon="-3.321567">
        <ele>1245.0</ele>
        <time>2021-09-04T07:50:53Z</time>
      </trkpt>
      <trkpt lat="36.940517" lon="-3.321342">
        <ele>1245.5</ele>
        <time>2021-09-04T07:51:08Z</time>
      </trkpt>
      <trkpt lat="36.940603" lon="-3.321126">
        <ele>1247.9</ele>
        <time>2021-09-04T07:51:21Z</time>
      </trkpt>
      <trkpt lat="36.940710" lon="-3.320926">
        <ele>1249.4</ele>
        <time>2021-09-04T07:51:36Z</time>
      </trkpt>
      <trkpt lat="36.940895" lon="-3.320815">
        <ele>1250.8</ele>
        <time>2021-09-04T07:51:50Z</time>
      </trkpt>
      <trkpt lat="36.941083" lon="-3.320781">
        <ele>1251.3</ele>
        <time>2021-09-04T07:52:06Z</time>
      </trkpt>
      <trkpt lat="36.941325" lon="-3.320864">
        <ele>1253.2</ele>
        <time>2021-09-04T07:52:47Z</time>
      </trkpt>
      <trkpt lat="36.941649" lon="-3.321055">
        <ele>1264.3</ele>
        <time>2021-09-04T07:53:56Z</time>
      </trkpt>
      <trkpt lat="36.941874" lon="-3.321131">
        <ele>1266.7</ele>
        <time>2021-09-04T07:54:23Z</time>
      </trkpt>
      <trkpt lat="36.942062" lon="-3.321281">
        <ele>1273.4</ele>
        <time>2021-09-04T07:55:10Z</time>
      </trkpt>
      <trkpt lat="36.942304" lon="-3.321361">
        <ele>1279.2</ele>
        <time>2021-09-04T07:55:49Z</time>
      </trkpt>
      <trkpt lat="36.942488" lon="-3.321516">
        <ele>1290.2</ele>
        <time>2021-09-04T07:56:52Z</time>
      </trkpt>
      <trkpt lat="36.942786" lon="-3.321715">
        <ele>1297.0</ele>
        <time>2021-09-04T07:57:31Z</time>
      </trkpt>
      <trkpt lat="36.942936" lon="-3.321817">
        <ele>1300.3</ele>
        <time>2021-09-04T07:58:11Z</time>
      </trkpt>
      <trkpt lat="36.943192" lon="-3.321846">
        <ele>1302.7</ele>
        <time>2021-09-04T07:58:50Z</time>
      </trkpt>
      <trkpt lat="36.943518" lon="-3.321900">
        <ele>1309.5</ele>
        <time>2021-09-04T07:59:36Z</time>
      </trkpt>
      <trkpt lat="36.943805" lon="-3.321763">
        <ele>1319.1</ele>
        <time>2021-09-04T08:00:52Z</time>
      </trkpt>
      <trkpt lat="36.944191" lon="-3.321592">
        <ele>1322.9</ele>
        <time>2021-09-04T08:03:36Z</time>
      </trkpt>
      <trkpt lat="36.943992" lon="-3.321955">
        <ele>1324.4</ele>
        <time>2021-09-04T08:04:04Z</time>
      </trkpt>
      <trkpt lat="36.943941" lon="-3.322194">
        <ele>1322.9</ele>
        <time>2021-09-04T08:04:08Z</time>
      </trkpt>
      <trkpt lat="36.943992" lon="-3.321809">
        <ele>1322.9</ele>
        <time>2021-09-04T08:04:39Z</time>
      </trkpt>
      <trkpt lat="36.944097" lon="-3.321742">
        <ele>1323.9</ele>
        <time>2021-09-04T08:05:49Z</time>
      </trkpt>
      <trkpt lat="36.943998" lon="-3.322163">
        <ele>1324.8</ele>
        <time>2021-09-04T08:06:11Z</time>
      </trkpt>
      <trkpt lat="36.944025" lon="-3.322407">
        <ele>1324.4</ele>
        <time>2021-09-04T08:06:22Z</time>
      </trkpt>
      <trkpt lat="36.943848" lon="-3.321632">
        <ele>1326.3</ele>
        <time>2021-09-04T08:07:14Z</time>
      </trkpt>
      <trkpt lat="36.943685" lon="-3.321662">
        <ele>1323.4</ele>
        <time>2021-09-04T08:07:56Z</time>
      </trkpt>
      <trkpt lat="36.943727" lon="-3.321670">
        <ele>1324.8</ele>
        <time>2021-09-04T08:09:03Z</time>
      </trkpt>
      <trkpt lat="36.943358" lon="-3.321662">
        <ele>1325.8</ele>
        <time>2021-09-04T08:09:59Z</time>
      </trkpt>
      <trkpt lat="36.943185" lon="-3.321557">
        <ele>1326.3</ele>
        <time>2021-09-04T08:10:20Z</time>
      </trkpt>
      <trkpt lat="36.943006" lon="-3.321351">
        <ele>1327.7</ele>
        <time>2021-09-04T08:10:42Z</time>
      </trkpt>
      <trkpt lat="36.942854" lon="-3.321172">
        <ele>1326.8</ele>
        <time>2021-09-04T08:10:59Z</time>
      </trkpt>
      <trkpt lat="36.942724" lon="-3.321012">
        <ele>1326.3</ele>
        <time>2021-09-04T08:11:13Z</time>
      </trkpt>
      <trkpt lat="36.942543" lon="-3.320871">
        <ele>1323.4</ele>
        <time>2021-09-04T08:11:34Z</time>
      </trkpt>
      <trkpt lat="36.942439" lon="-3.320567">
        <ele>1320.0</ele>
        <time>2021-09-04T08:12:23Z</time>
      </trkpt>
      <trkpt lat="36.942510" lon="-3.320839">
        <ele>1323.9</ele>
        <time>2021-09-04T08:12:55Z</time>
      </trkpt>
      <trkpt lat="36.942548" lon="-3.320725">
        <ele>1326.8</ele>
        <time>2021-09-04T08:13:33Z</time>
      </trkpt>
      <trkpt lat="36.942494" lon="-3.320528">
        <ele>1328.7</ele>
        <time>2021-09-04T08:14:30Z</time>
      </trkpt>
      <trkpt lat="36.942647" lon="-3.320443">
        <ele>1322.9</ele>
        <time>2021-09-04T08:14:49Z</time>
      </trkpt>
      <trkpt lat="36.942816" lon="-3.320568">
        <ele>1334.4</ele>
        <time>2021-09-04T08:15:22Z</time>
      </trkpt>
      <trkpt lat="36.942914" lon="-3.320461">
        <ele>1342.6</ele>
        <time>2021-09-04T08:16:10Z</time>
      </trkpt>
      <trkpt lat="36.942869" lon="-3.320317">
        <ele>1347.9</ele>
        <time>2021-09-04T08:16:54Z</time>
      </trkpt>
      <trkpt lat="36.942851" lon="-3.320185">
        <ele>1353.7</ele>
        <time>2021-09-04T08:17:37Z</time>
      </trkpt>
      <trkpt lat="36.942887" lon="-3.320199">
        <ele>1354.6</ele>
        <time>2021-09-04T08:18:27Z</time>
      </trkpt>
      <trkpt lat="36.942993" lon="-3.320234">
        <ele>1358.5</ele>
        <time>2021-09-04T08:18:57Z</time>
      </trkpt>
      <trkpt lat="36.942956" lon="-3.320108">
        <ele>1358.5</ele>
        <time>2021-09-04T08:19:35Z</time>
      </trkpt>
      <trkpt lat="36.943101" lon="-3.320135">
        <ele>1365.7</ele>
        <time>2021-09-04T08:20:08Z</time>
      </trkpt>
      <trkpt lat="36.943088" lon="-3.319930">
        <ele>1363.8</ele>
        <time>2021-09-04T08:20:28Z</time>
      </trkpt>
      <trkpt lat="36.942951" lon="-3.319759">
        <ele>1361.8</ele>
        <time>2021-09-04T08:20:44Z</time>
      </trkpt>
      <trkpt lat="36.943117" lon="-3.319681">
        <ele>1361.4</ele>
        <time>2021-09-04T08:20:58Z</time>
      </trkpt>
      <trkpt lat="36.943232" lon="-3.319494">
        <ele>1362.3</ele>
        <time>2021-09-04T08:21:17Z</time>
      </trkpt>
      <trkpt lat="36.943330" lon="-3.319298">
        <ele>1363.8</ele>
        <time>2021-09-04T08:21:33Z</time>
      </trkpt>
      <trkpt lat="36.943308" lon="-3.319046">
        <ele>1363.3</ele>
        <time>2021-09-04T08:21:49Z</time>
      </trkpt>
      <trkpt lat="36.943302" lon="-3.318791">
        <ele>1362.3</ele>
        <time>2021-09-04T08:22:05Z</time>
      </trkpt>
      <trkpt lat="36.943278" lon="-3.318542">
        <ele>1362.3</ele>
        <time>2021-09-04T08:22:20Z</time>
      </trkpt>
      <trkpt lat="36.943344" lon="-3.318331">
        <ele>1364.7</ele>
        <time>2021-09-04T08:22:36Z</time>
      </trkpt>
      <trkpt lat="36.943374" lon="-3.318104">
        <ele>1365.2</ele>
        <time>2021-09-04T08:22:52Z</time>
      </trkpt>
      <trkpt lat="36.943306" lon="-3.317883">
        <ele>1364.2</ele>
        <time>2021-09-04T08:23:06Z</time>
      </trkpt>
      <trkpt lat="36.943382" lon="-3.317690">
        <ele>1365.7</ele>
        <time>2021-09-04T08:23:21Z</time>
      </trkpt>
      <trkpt lat="36.943489" lon="-3.317503">
        <ele>1367.1</ele>
        <time>2021-09-04T08:23:35Z</time>
      </trkpt>
      <trkpt lat="36.943583" lon="-3.317305">
        <ele>1365.7</ele>
        <time>2021-09-04T08:23:49Z</time>
      </trkpt>
      <trkpt lat="36.943573" lon="-3.317046">
        <ele>1365.7</ele>
        <time>2021-09-04T08:24:10Z</time>
      </trkpt>
      <trkpt lat="36.943628" lon="-3.316822">
        <ele>1363.3</ele>
        <time>2021-09-04T08:24:26Z</time>
      </trkpt>
      <trkpt lat="36.943764" lon="-3.316661">
        <ele>1361.8</ele>
        <time>2021-09-04T08:24:42Z</time>
      </trkpt>
      <trkpt lat="36.943892" lon="-3.316505">
        <ele>1358.5</ele>
        <time>2021-09-04T08:25:00Z</time>
      </trkpt>
      <trkpt lat="36.944029" lon="-3.316400">
        <ele>1360.4</ele>
        <time>2021-09-04T08:25:23Z</time>
      </trkpt>
      <trkpt lat="36.944223" lon="-3.316545">
        <ele>1368.1</ele>
        <time>2021-09-04T08:25:51Z</time>
      </trkpt>
      <trkpt lat="36.944117" lon="-3.316718">
        <ele>1371.5</ele>
        <time>2021-09-04T08:26:11Z</time>
      </trkpt>
      <trkpt lat="36.943985" lon="-3.316898">
        <ele>1375.3</ele>
        <time>2021-09-04T08:26:30Z</time>
      </trkpt>
      <trkpt lat="36.943872" lon="-3.317093">
        <ele>1376.3</ele>
        <time>2021-09-04T08:26:47Z</time>
      </trkpt>
      <trkpt lat="36.943784" lon="-3.317301">
        <ele>1375.8</ele>
        <time>2021-09-04T08:27:04Z</time>
      </trkpt>
      <trkpt lat="36.943767" lon="-3.317539">
        <ele>1377.7</ele>
        <time>2021-09-04T08:27:21Z</time>
      </trkpt>
      <trkpt lat="36.943773" lon="-3.317789">
        <ele>1378.2</ele>
        <time>2021-09-04T08:27:40Z</time>
      </trkpt>
      <trkpt lat="36.943865" lon="-3.317994">
        <ele>1379.6</ele>
        <time>2021-09-04T08:27:56Z</time>
      </trkpt>
      <trkpt lat="36.944027" lon="-3.318131">
        <ele>1384.9</ele>
        <time>2021-09-04T08:28:21Z</time>
      </trkpt>
      <trkpt lat="36.944273" lon="-3.318226">
        <ele>1386.8</ele>
        <time>2021-09-04T08:29:16Z</time>
      </trkpt>
      <trkpt lat="36.944464" lon="-3.318360">
        <ele>1389.2</ele>
        <time>2021-09-04T08:29:36Z</time>
      </trkpt>
      <trkpt lat="36.944541" lon="-3.318593">
        <ele>1390.7</ele>
        <time>2021-09-04T08:29:54Z</time>
      </trkpt>
      <trkpt lat="36.944659" lon="-3.318760">
        <ele>1393.6</ele>
        <time>2021-09-04T08:30:10Z</time>
      </trkpt>
      <trkpt lat="36.944855" lon="-3.318863">
        <ele>1396.0</ele>
        <time>2021-09-04T08:30:29Z</time>
      </trkpt>
      <trkpt lat="36.945031" lon="-3.319007">
        <ele>1400.3</ele>
        <time>2021-09-04T08:30:49Z</time>
      </trkpt>
      <trkpt lat="36.945220" lon="-3.319089">
        <ele>1402.2</ele>
        <time>2021-09-04T08:31:11Z</time>
      </trkpt>
      <trkpt lat="36.945376" lon="-3.319310">
        <ele>1409.4</ele>
        <time>2021-09-04T08:31:39Z</time>
      </trkpt>
      <trkpt lat="36.945542" lon="-3.319246">
        <ele>1414.7</ele>
        <time>2021-09-04T08:32:18Z</time>
      </trkpt>
      <trkpt lat="36.945658" lon="-3.319023">
        <ele>1415.7</ele>
        <time>2021-09-04T08:32:41Z</time>
      </trkpt>
      <trkpt lat="36.945800" lon="-3.318862">
        <ele>1419.5</ele>
        <time>2021-09-04T08:32:59Z</time>
      </trkpt>
      <trkpt lat="36.945938" lon="-3.318673">
        <ele>1421.4</ele>
        <time>2021-09-04T08:33:15Z</time>
      </trkpt>
      <trkpt lat="36.946093" lon="-3.318527">
        <ele>1424.3</ele>
        <time>2021-09-04T08:33:31Z</time>
      </trkpt>
      <trkpt lat="36.946246" lon="-3.318390">
        <ele>1426.3</ele>
        <time>2021-09-04T08:34:27Z</time>
      </trkpt>
      <trkpt lat="36.946184" lon="-3.318644">
        <ele>1428.2</ele>
        <time>2021-09-04T08:34:48Z</time>
      </trkpt>
      <trkpt lat="36.946064" lon="-3.318863">
        <ele>1428.2</ele>
        <time>2021-09-04T08:35:05Z</time>
      </trkpt>
      <trkpt lat="36.946106" lon="-3.319048">
        <ele>1431.1</ele>
        <time>2021-09-04T08:35:24Z</time>
      </trkpt>
      <trkpt lat="36.946260" lon="-3.318903">
        <ele>1433.0</ele>
        <time>2021-09-04T08:35:42Z</time>
      </trkpt>
      <trkpt lat="36.946446" lon="-3.318807">
        <ele>1438.8</ele>
        <time>2021-09-04T08:36:03Z</time>
      </trkpt>
      <trkpt lat="36.946565" lon="-3.318916">
        <ele>1440.7</ele>
        <time>2021-09-04T08:36:28Z</time>
      </trkpt>
      <trkpt lat="36.946497" lon="-3.319168">
        <ele>1444.0</ele>
        <time>2021-09-04T08:36:51Z</time>
      </trkpt>
      <trkpt lat="36.946651" lon="-3.319135">
        <ele>1448.4</ele>
        <time>2021-09-04T08:37:12Z</time>
      </trkpt>
      <trkpt lat="36.946826" lon="-3.319026">
        <ele>1452.7</ele>
        <time>2021-09-04T08:37:32Z</time>
      </trkpt>
      <trkpt lat="36.946998" lon="-3.318885">
        <ele>1454.6</ele>
        <time>2021-09-04T08:38:17Z</time>
      </trkpt>
      <trkpt lat="36.947182" lon="-3.318818">
        <ele>1459.4</ele>
        <time>2021-09-04T08:38:38Z</time>
      </trkpt>
      <trkpt lat="36.947387" lon="-3.318855">
        <ele>1459.4</ele>
        <time>2021-09-04T08:38:56Z</time>
      </trkpt>
      <trkpt lat="36.947598" lon="-3.318957">
        <ele>1460.4</ele>
        <time>2021-09-04T08:39:21Z</time>
      </trkpt>
      <trkpt lat="36.947762" lon="-3.318863">
        <ele>1459.9</ele>
        <time>2021-09-04T08:39:36Z</time>
      </trkpt>
      <trkpt lat="36.947919" lon="-3.318738">
        <ele>1458.9</ele>
        <time>2021-09-04T08:39:50Z</time>
      </trkpt>
      <trkpt lat="36.948081" lon="-3.318617">
        <ele>1458.0</ele>
        <time>2021-09-04T08:40:05Z</time>
      </trkpt>
      <trkpt lat="36.948279" lon="-3.318587">
        <ele>1456.1</ele>
        <time>2021-09-04T08:40:21Z</time>
      </trkpt>
      <trkpt lat="36.948438" lon="-3.318420">
        <ele>1457.0</ele>
        <time>2021-09-04T08:40:36Z</time>
      </trkpt>
      <trkpt lat="36.948510" lon="-3.318373">
        <ele>1458.9</ele>
        <time>2021-09-04T08:41:34Z</time>
      </trkpt>
      <trkpt lat="36.948400" lon="-3.318560">
        <ele>1459.9</ele>
        <time>2021-09-04T08:42:18Z</time>
      </trkpt>
      <trkpt lat="36.948251" lon="-3.318757">
        <ele>1463.7</ele>
        <time>2021-09-04T08:42:42Z</time>
      </trkpt>
      <trkpt lat="36.948266" lon="-3.318970">
        <ele>1469.5</ele>
        <time>2021-09-04T08:43:23Z</time>
      </trkpt>
      <trkpt lat="36.948277" lon="-3.319260">
        <ele>1472.9</ele>
        <time>2021-09-04T08:43:52Z</time>
      </trkpt>
      <trkpt lat="36.948393" lon="-3.319480">
        <ele>1480.6</ele>
        <time>2021-09-04T08:44:19Z</time>
      </trkpt>
      <trkpt lat="36.948558" lon="-3.319677">
        <ele>1483.9</ele>
        <time>2021-09-04T08:44:52Z</time>
      </trkpt>
      <trkpt lat="36.948664" lon="-3.319958">
        <ele>1492.6</ele>
        <time>2021-09-04T08:45:32Z</time>
      </trkpt>
      <trkpt lat="36.948721" lon="-3.320247">
        <ele>1496.4</ele>
        <time>2021-09-04T08:46:22Z</time>
      </trkpt>
      <trkpt lat="36.948826" lon="-3.320478">
        <ele>1503.6</ele>
        <time>2021-09-04T08:46:49Z</time>
      </trkpt>
      <trkpt lat="36.948975" lon="-3.320689">
        <ele>1505.1</ele>
        <time>2021-09-04T08:47:23Z</time>
      </trkpt>
      <trkpt lat="36.949100" lon="-3.320962">
        <ele>1510.4</ele>
        <time>2021-09-04T08:48:08Z</time>
      </trkpt>
      <trkpt lat="36.949305" lon="-3.321068">
        <ele>1514.7</ele>
        <time>2021-09-04T08:49:01Z</time>
      </trkpt>
      <trkpt lat="36.949451" lon="-3.320893">
        <ele>1521.9</ele>
        <time>2021-09-04T08:49:26Z</time>
      </trkpt>
      <trkpt lat="36.949482" lon="-3.320661">
        <ele>1521.4</ele>
        <time>2021-09-04T08:49:46Z</time>
      </trkpt>
      <trkpt lat="36.949516" lon="-3.320420">
        <ele>1524.3</ele>
        <time>2021-09-04T08:50:09Z</time>
      </trkpt>
      <trkpt lat="36.949699" lon="-3.320386">
        <ele>1529.6</ele>
        <time>2021-09-04T08:50:41Z</time>
      </trkpt>
      <trkpt lat="36.949896" lon="-3.320283">
        <ele>1532.0</ele>
        <time>2021-09-04T08:51:17Z</time>
      </trkpt>
      <trkpt lat="36.950156" lon="-3.320308">
        <ele>1539.7</ele>
        <time>2021-09-04T08:52:00Z</time>
      </trkpt>
      <trkpt lat="36.950308" lon="-3.320454">
        <ele>1547.9</ele>
        <time>2021-09-04T08:52:48Z</time>
      </trkpt>
      <trkpt lat="36.950429" lon="-3.320531">
        <ele>1555.6</ele>
        <time>2021-09-04T08:53:51Z</time>
      </trkpt>
      <trkpt lat="36.950515" lon="-3.320796">
        <ele>1562.8</ele>
        <time>2021-09-04T08:54:32Z</time>
      </trkpt>
      <trkpt lat="36.950717" lon="-3.320912">
        <ele>1566.1</ele>
        <time>2021-09-04T08:55:07Z</time>
      </trkpt>
      <trkpt lat="36.950846" lon="-3.321095">
        <ele>1573.8</ele>
        <time>2021-09-04T08:55:40Z</time>
      </trkpt>
      <trkpt lat="36.951023" lon="-3.321177">
        <ele>1577.7</ele>
        <time>2021-09-04T08:56:11Z</time>
      </trkpt>
      <trkpt lat="36.951203" lon="-3.321161">
        <ele>1581.0</ele>
        <time>2021-09-04T08:56:39Z</time>
      </trkpt>
      <trkpt lat="36.951384" lon="-3.321274">
        <ele>1586.3</ele>
        <time>2021-09-04T08:57:05Z</time>
      </trkpt>
      <trkpt lat="36.951556" lon="-3.321462">
        <ele>1590.2</ele>
        <time>2021-09-04T08:57:33Z</time>
      </trkpt>
      <trkpt lat="36.951698" lon="-3.321743">
        <ele>1592.1</ele>
        <time>2021-09-04T08:58:08Z</time>
      </trkpt>
      <trkpt lat="36.951712" lon="-3.322018">
        <ele>1595.9</ele>
        <time>2021-09-04T08:58:37Z</time>
      </trkpt>
      <trkpt lat="36.951735" lon="-3.322241">
        <ele>1602.2</ele>
        <time>2021-09-04T08:59:30Z</time>
      </trkpt>
      <trkpt lat="36.951929" lon="-3.322322">
        <ele>1608.4</ele>
        <time>2021-09-04T09:00:02Z</time>
      </trkpt>
      <trkpt lat="36.952128" lon="-3.322343">
        <ele>1611.8</ele>
        <time>2021-09-04T09:00:34Z</time>
      </trkpt>
      <trkpt lat="36.952343" lon="-3.322461">
        <ele>1616.1</ele>
        <time>2021-09-04T09:01:04Z</time>
      </trkpt>
      <trkpt lat="36.952565" lon="-3.322514">
        <ele>1620.4</ele>
        <time>2021-09-04T09:01:37Z</time>
      </trkpt>
      <trkpt lat="36.952842" lon="-3.322624">
        <ele>1621.9</ele>
        <time>2021-09-04T09:02:22Z</time>
      </trkpt>
      <trkpt lat="36.952978" lon="-3.322871">
        <ele>1627.2</ele>
        <time>2021-09-04T09:03:08Z</time>
      </trkpt>
      <trkpt lat="36.953148" lon="-3.323121">
        <ele>1632.5</ele>
        <time>2021-09-04T09:03:51Z</time>
      </trkpt>
      <trkpt lat="36.953315" lon="-3.323390">
        <ele>1641.1</ele>
        <time>2021-09-04T09:04:36Z</time>
      </trkpt>
      <trkpt lat="36.953356" lon="-3.323703">
        <ele>1645.9</ele>
        <time>2021-09-04T09:05:20Z</time>
      </trkpt>
      <trkpt lat="36.953463" lon="-3.323919">
        <ele>1652.2</ele>
        <time>2021-09-04T09:06:04Z</time>
      </trkpt>
      <trkpt lat="36.953658" lon="-3.324145">
        <ele>1657.9</ele>
        <time>2021-09-04T09:06:42Z</time>
      </trkpt>
      <trkpt lat="36.953883" lon="-3.324335">
        <ele>1663.7</ele>
        <time>2021-09-04T09:07:16Z</time>
      </trkpt>
      <trkpt lat="36.954034" lon="-3.324506">
        <ele>1670.4</ele>
        <time>2021-09-04T09:08:11Z</time>
      </trkpt>
      <trkpt lat="36.954299" lon="-3.324505">
        <ele>1680.5</ele>
        <time>2021-09-04T09:09:17Z</time>
      </trkpt>
      <trkpt lat="36.954414" lon="-3.324313">
        <ele>1686.8</ele>
        <time>2021-09-04T09:09:48Z</time>
      </trkpt>
      <trkpt lat="36.954482" lon="-3.324108">
        <ele>1690.1</ele>
        <time>2021-09-04T09:10:12Z</time>
      </trkpt>
      <trkpt lat="36.954672" lon="-3.324048">
        <ele>1691.6</ele>
        <time>2021-09-04T09:11:09Z</time>
      </trkpt>
      <trkpt lat="36.954561" lon="-3.324027">
        <ele>1693.0</ele>
        <time>2021-09-04T09:15:29Z</time>
      </trkpt>
      <trkpt lat="36.954676" lon="-3.324163">
        <ele>1695.9</ele>
        <time>2021-09-04T09:17:26Z</time>
      </trkpt>
      <trkpt lat="36.954775" lon="-3.324413">
        <ele>1695.9</ele>
        <time>2021-09-04T09:17:49Z</time>
      </trkpt>
      <trkpt lat="36.954907" lon="-3.324738">
        <ele>1697.3</ele>
        <time>2021-09-04T09:18:19Z</time>
      </trkpt>
      <trkpt lat="36.954990" lon="-3.325013">
        <ele>1701.7</ele>
        <time>2021-09-04T09:18:44Z</time>
      </trkpt>
      <trkpt lat="36.955252" lon="-3.325225">
        <ele>1707.4</ele>
        <time>2021-09-04T09:19:33Z</time>
      </trkpt>
      <trkpt lat="36.955349" lon="-3.325436">
        <ele>1703.6</ele>
        <time>2021-09-04T09:21:21Z</time>
      </trkpt>
      <trkpt lat="36.955419" lon="-3.325817">
        <ele>1693.5</ele>
        <time>2021-09-04T09:22:45Z</time>
      </trkpt>
      <trkpt lat="36.955434" lon="-3.325739">
        <ele>1692.5</ele>
        <time>2021-09-04T09:30:33Z</time>
      </trkpt>
      <trkpt lat="36.955335" lon="-3.325775">
        <ele>1699.7</ele>
        <time>2021-09-04T09:33:45Z</time>
      </trkpt>
      <trkpt lat="36.955404" lon="-3.325402">
        <ele>1711.8</ele>
        <time>2021-09-04T09:34:43Z</time>
      </trkpt>
      <trkpt lat="36.955271" lon="-3.325211">
        <ele>1714.6</ele>
        <time>2021-09-04T09:35:07Z</time>
      </trkpt>
      <trkpt lat="36.955260" lon="-3.325212">
        <ele>1715.1</ele>
        <time>2021-09-04T09:35:53Z</time>
      </trkpt>
      <trkpt lat="36.955202" lon="-3.324981">
        <ele>1714.6</ele>
        <time>2021-09-04T09:37:04Z</time>
      </trkpt>
      <trkpt lat="36.955136" lon="-3.324754">
        <ele>1714.6</ele>
        <time>2021-09-04T09:37:36Z</time>
      </trkpt>
      <trkpt lat="36.955101" lon="-3.324588">
        <ele>1715.1</ele>
        <time>2021-09-04T09:38:07Z</time>
      </trkpt>
      <trkpt lat="36.955020" lon="-3.324373">
        <ele>1715.6</ele>
        <time>2021-09-04T09:38:29Z</time>
      </trkpt>
      <trkpt lat="36.954971" lon="-3.324153">
        <ele>1717.5</ele>
        <time>2021-09-04T09:38:46Z</time>
      </trkpt>
      <trkpt lat="36.954968" lon="-3.323943">
        <ele>1719.0</ele>
        <time>2021-09-04T09:39:11Z</time>
      </trkpt>
      <trkpt lat="36.955010" lon="-3.323726">
        <ele>1719.5</ele>
        <time>2021-09-04T09:39:27Z</time>
      </trkpt>
      <trkpt lat="36.954940" lon="-3.323492">
        <ele>1722.3</ele>
        <time>2021-09-04T09:39:44Z</time>
      </trkpt>
      <trkpt lat="36.954925" lon="-3.323259">
        <ele>1725.2</ele>
        <time>2021-09-04T09:40:00Z</time>
      </trkpt>
      <trkpt lat="36.954908" lon="-3.323024">
        <ele>1726.7</ele>
        <time>2021-09-04T09:40:17Z</time>
      </trkpt>
      <trkpt lat="36.954944" lon="-3.322796">
        <ele>1728.6</ele>
        <time>2021-09-04T09:40:35Z</time>
      </trkpt>
      <trkpt lat="36.954986" lon="-3.322580">
        <ele>1730.5</ele>
        <time>2021-09-04T09:41:06Z</time>
      </trkpt>
      <trkpt lat="36.955039" lon="-3.322795">
        <ele>1733.9</ele>
        <time>2021-09-04T09:41:27Z</time>
      </trkpt>
      <trkpt lat="36.955096" lon="-3.323043">
        <ele>1735.3</ele>
        <time>2021-09-04T09:41:46Z</time>
      </trkpt>
      <trkpt lat="36.955197" lon="-3.323271">
        <ele>1737.2</ele>
        <time>2021-09-04T09:42:04Z</time>
      </trkpt>
      <trkpt lat="36.955376" lon="-3.323402">
        <ele>1737.7</ele>
        <time>2021-09-04T09:42:21Z</time>
      </trkpt>
      <trkpt lat="36.955577" lon="-3.323464">
        <ele>1740.1</ele>
        <time>2021-09-04T09:42:39Z</time>
      </trkpt>
      <trkpt lat="36.955525" lon="-3.323705">
        <ele>1742.0</ele>
        <time>2021-09-04T09:42:59Z</time>
      </trkpt>
      <trkpt lat="36.955436" lon="-3.323923">
        <ele>1743.0</ele>
        <time>2021-09-04T09:43:14Z</time>
      </trkpt>
      <trkpt lat="36.955502" lon="-3.324139">
        <ele>1744.9</ele>
        <time>2021-09-04T09:43:30Z</time>
      </trkpt>
      <trkpt lat="36.955651" lon="-3.324317">
        <ele>1745.9</ele>
        <time>2021-09-04T09:43:46Z</time>
      </trkpt>
      <trkpt lat="36.955751" lon="-3.324549">
        <ele>1747.8</ele>
        <time>2021-09-04T09:44:03Z</time>
      </trkpt>
      <trkpt lat="36.955807" lon="-3.324828">
        <ele>1748.8</ele>
        <time>2021-09-04T09:44:19Z</time>
      </trkpt>
      <trkpt lat="36.955878" lon="-3.325082">
        <ele>1749.7</ele>
        <time>2021-09-04T09:44:35Z</time>
      </trkpt>
      <trkpt lat="36.955941" lon="-3.325318">
        <ele>1749.7</ele>
        <time>2021-09-04T09:44:50Z</time>
      </trkpt>
      <trkpt lat="36.955965" lon="-3.325553">
        <ele>1750.2</ele>
        <time>2021-09-04T09:45:05Z</time>
      </trkpt>
      <trkpt lat="36.955983" lon="-3.325805">
        <ele>1751.2</ele>
        <time>2021-09-04T09:45:40Z</time>
      </trkpt>
      <trkpt lat="36.955968" lon="-3.326065">
        <ele>1751.2</ele>
        <time>2021-09-04T09:46:08Z</time>
      </trkpt>
      <trkpt lat="36.955959" lon="-3.326180">
        <ele>1750.2</ele>
        <time>2021-09-04T09:46:48Z</time>
      </trkpt>
      <trkpt lat="36.956103" lon="-3.326194">
        <ele>1751.2</ele>
        <time>2021-09-04T09:48:43Z</time>
      </trkpt>
      <trkpt lat="36.956284" lon="-3.326108">
        <ele>1752.1</ele>
        <time>2021-09-04T09:49:00Z</time>
      </trkpt>
      <trkpt lat="36.956345" lon="-3.326248">
        <ele>1757.4</ele>
        <time>2021-09-04T09:49:28Z</time>
      </trkpt>
      <trkpt lat="36.956478" lon="-3.326439">
        <ele>1756.9</ele>
        <time>2021-09-04T09:49:49Z</time>
      </trkpt>
      <trkpt lat="36.956460" lon="-3.326467">
        <ele>1761.3</ele>
        <time>2021-09-04T09:51:42Z</time>
      </trkpt>
      <trkpt lat="36.956513" lon="-3.326711">
        <ele>1765.6</ele>
        <time>2021-09-04T09:52:48Z</time>
      </trkpt>
      <trkpt lat="36.956635" lon="-3.326924">
        <ele>1772.3</ele>
        <time>2021-09-04T09:53:15Z</time>
      </trkpt>
      <trkpt lat="36.956826" lon="-3.327109">
        <ele>1775.2</ele>
        <time>2021-09-04T09:53:53Z</time>
      </trkpt>
      <trkpt lat="36.956973" lon="-3.327306">
        <ele>1779.5</ele>
        <time>2021-09-04T09:54:21Z</time>
      </trkpt>
      <trkpt lat="36.957176" lon="-3.327485">
        <ele>1782.4</ele>
        <time>2021-09-04T09:54:54Z</time>
      </trkpt>
      <trkpt lat="36.957264" lon="-3.327515">
        <ele>1784.8</ele>
        <time>2021-09-04T09:56:05Z</time>
      </trkpt>
      <trkpt lat="36.957428" lon="-3.327738">
        <ele>1787.2</ele>
        <time>2021-09-04T10:00:15Z</time>
      </trkpt>
      <trkpt lat="36.957347" lon="-3.327584">
        <ele>1782.9</ele>
        <time>2021-09-04T10:04:32Z</time>
      </trkpt>
      <trkpt lat="36.957165" lon="-3.327470">
        <ele>1785.8</ele>
        <time>2021-09-04T10:06:08Z</time>
      </trkpt>
      <trkpt lat="36.957023" lon="-3.327342">
        <ele>1784.3</ele>
        <time>2021-09-04T10:06:39Z</time>
      </trkpt>
      <trkpt lat="36.956891" lon="-3.327230">
        <ele>1778.1</ele>
        <time>2021-09-04T10:07:03Z</time>
      </trkpt>
      <trkpt lat="36.956744" lon="-3.327038">
        <ele>1776.2</ele>
        <time>2021-09-04T10:07:38Z</time>
      </trkpt>
      <trkpt lat="36.956599" lon="-3.326900">
        <ele>1774.7</ele>
        <time>2021-09-04T10:07:56Z</time>
      </trkpt>
      <trkpt lat="36.956515" lon="-3.326699">
        <ele>1769.0</ele>
        <time>2021-09-04T10:08:14Z</time>
      </trkpt>
      <trkpt lat="36.956434" lon="-3.326488">
        <ele>1765.1</ele>
        <time>2021-09-04T10:08:33Z</time>
      </trkpt>
      <trkpt lat="36.956315" lon="-3.326296">
        <ele>1759.4</ele>
        <time>2021-09-04T10:09:34Z</time>
      </trkpt>
      <trkpt lat="36.956170" lon="-3.326213">
        <ele>1755.5</ele>
        <time>2021-09-04T10:10:09Z</time>
      </trkpt>
      <trkpt lat="36.955961" lon="-3.326257">
        <ele>1752.6</ele>
        <time>2021-09-04T10:11:32Z</time>
      </trkpt>
      <trkpt lat="36.955774" lon="-3.326349">
        <ele>1753.1</ele>
        <time>2021-09-04T10:11:49Z</time>
      </trkpt>
      <trkpt lat="36.955564" lon="-3.326394">
        <ele>1752.1</ele>
        <time>2021-09-04T10:12:04Z</time>
      </trkpt>
      <trkpt lat="36.955373" lon="-3.326433">
        <ele>1751.2</ele>
        <time>2021-09-04T10:12:23Z</time>
      </trkpt>
      <trkpt lat="36.955295" lon="-3.326646">
        <ele>1751.2</ele>
        <time>2021-09-04T10:12:39Z</time>
      </trkpt>
      <trkpt lat="36.955250" lon="-3.326883">
        <ele>1752.1</ele>
        <time>2021-09-04T10:12:55Z</time>
      </trkpt>
      <trkpt lat="36.955193" lon="-3.327114">
        <ele>1750.2</ele>
        <time>2021-09-04T10:13:09Z</time>
      </trkpt>
      <trkpt lat="36.955150" lon="-3.327347">
        <ele>1749.3</ele>
        <time>2021-09-04T10:13:23Z</time>
      </trkpt>
      <trkpt lat="36.955112" lon="-3.327577">
        <ele>1750.7</ele>
        <time>2021-09-04T10:13:37Z</time>
      </trkpt>
      <trkpt lat="36.955150" lon="-3.327841">
        <ele>1751.2</ele>
        <time>2021-09-04T10:13:54Z</time>
      </trkpt>
      <trkpt lat="36.955100" lon="-3.328079">
        <ele>1752.1</ele>
        <time>2021-09-04T10:14:09Z</time>
      </trkpt>
      <trkpt lat="36.954981" lon="-3.328281">
        <ele>1753.6</ele>
        <time>2021-09-04T10:14:24Z</time>
      </trkpt>
      <trkpt lat="36.954869" lon="-3.328484">
        <ele>1753.6</ele>
        <time>2021-09-04T10:14:39Z</time>
      </trkpt>
      <trkpt lat="36.954739" lon="-3.328671">
        <ele>1754.1</ele>
        <time>2021-09-04T10:14:54Z</time>
      </trkpt>
      <trkpt lat="36.954579" lon="-3.328833">
        <ele>1754.1</ele>
        <time>2021-09-04T10:15:09Z</time>
      </trkpt>
      <trkpt lat="36.954436" lon="-3.329005">
        <ele>1753.6</ele>
        <time>2021-09-04T10:16:03Z</time>
      </trkpt>
      <trkpt lat="36.954317" lon="-3.329210">
        <ele>1754.5</ele>
        <time>2021-09-04T10:16:22Z</time>
      </trkpt>
      <trkpt lat="36.954210" lon="-3.329430">
        <ele>1754.5</ele>
        <time>2021-09-04T10:16:38Z</time>
      </trkpt>
      <trkpt lat="36.954017" lon="-3.329510">
        <ele>1754.1</ele>
        <time>2021-09-04T10:16:54Z</time>
      </trkpt>
      <trkpt lat="36.953815" lon="-3.329575">
        <ele>1754.1</ele>
        <time>2021-09-04T10:17:11Z</time>
      </trkpt>
      <trkpt lat="36.953653" lon="-3.329750">
        <ele>1754.1</ele>
        <time>2021-09-04T10:17:29Z</time>
      </trkpt>
      <trkpt lat="36.953510" lon="-3.329955">
        <ele>1754.1</ele>
        <time>2021-09-04T10:17:47Z</time>
      </trkpt>
      <trkpt lat="36.953335" lon="-3.330032">
        <ele>1749.7</ele>
        <time>2021-09-04T10:18:24Z</time>
      </trkpt>
      <trkpt lat="36.953159" lon="-3.329956">
        <ele>1741.6</ele>
        <time>2021-09-04T10:18:58Z</time>
      </trkpt>
      <trkpt lat="36.953183" lon="-3.329688">
        <ele>1734.8</ele>
        <time>2021-09-04T10:19:36Z</time>
      </trkpt>
      <trkpt lat="36.952900" lon="-3.329764">
        <ele>1727.1</ele>
        <time>2021-09-04T10:20:16Z</time>
      </trkpt>
      <trkpt lat="36.952636" lon="-3.329856">
        <ele>1720.9</ele>
        <time>2021-09-04T10:20:44Z</time>
      </trkpt>
      <trkpt lat="36.952422" lon="-3.329778">
        <ele>1715.6</ele>
        <time>2021-09-04T10:21:13Z</time>
      </trkpt>
      <trkpt lat="36.952224" lon="-3.329709">
        <ele>1707.9</ele>
        <time>2021-09-04T10:21:40Z</time>
      </trkpt>
      <trkpt lat="36.952123" lon="-3.329491">
        <ele>1703.6</ele>
        <time>2021-09-04T10:22:29Z</time>
      </trkpt>
      <trkpt lat="36.951981" lon="-3.329405">
        <ele>1698.3</ele>
        <time>2021-09-04T10:23:23Z</time>
      </trkpt>
      <trkpt lat="36.951840" lon="-3.329251">
        <ele>1692.5</ele>
        <time>2021-09-04T10:23:40Z</time>
      </trkpt>
      <trkpt lat="36.951824" lon="-3.329046">
        <ele>1687.7</ele>
        <time>2021-09-04T10:24:04Z</time>
      </trkpt>
      <trkpt lat="36.951866" lon="-3.328866">
        <ele>1681.5</ele>
        <time>2021-09-04T10:24:32Z</time>
      </trkpt>
      <trkpt lat="36.951786" lon="-3.328665">
        <ele>1673.8</ele>
        <time>2021-09-04T10:24:57Z</time>
      </trkpt>
      <trkpt lat="36.951707" lon="-3.328426">
        <ele>1668.5</ele>
        <time>2021-09-04T10:25:19Z</time>
      </trkpt>
      <trkpt lat="36.951515" lon="-3.328349">
        <ele>1662.7</ele>
        <time>2021-09-04T10:26:06Z</time>
      </trkpt>
      <trkpt lat="36.951351" lon="-3.328206">
        <ele>1655.5</ele>
        <time>2021-09-04T10:26:39Z</time>
      </trkpt>
      <trkpt lat="36.951285" lon="-3.328015">
        <ele>1649.8</ele>
        <time>2021-09-04T10:27:00Z</time>
      </trkpt>
      <trkpt lat="36.951189" lon="-3.327830">
        <ele>1644.0</ele>
        <time>2021-09-04T10:27:21Z</time>
      </trkpt>
      <trkpt lat="36.951029" lon="-3.327694">
        <ele>1638.2</ele>
        <time>2021-09-04T10:27:39Z</time>
      </trkpt>
      <trkpt lat="36.950801" lon="-3.327671">
        <ele>1633.9</ele>
        <time>2021-09-04T10:28:06Z</time>
      </trkpt>
      <trkpt lat="36.950627" lon="-3.327755">
        <ele>1629.1</ele>
        <time>2021-09-04T10:28:31Z</time>
      </trkpt>
      <trkpt lat="36.950491" lon="-3.327641">
        <ele>1622.4</ele>
        <time>2021-09-04T10:28:55Z</time>
      </trkpt>
      <trkpt lat="36.950500" lon="-3.327401">
        <ele>1617.6</ele>
        <time>2021-09-04T10:29:30Z</time>
      </trkpt>
      <trkpt lat="36.950347" lon="-3.327273">
        <ele>1613.7</ele>
        <time>2021-09-04T10:29:55Z</time>
      </trkpt>
      <trkpt lat="36.950250" lon="-3.327081">
        <ele>1610.3</ele>
        <time>2021-09-04T10:30:12Z</time>
      </trkpt>
      <trkpt lat="36.950130" lon="-3.326900">
        <ele>1607.5</ele>
        <time>2021-09-04T10:30:27Z</time>
      </trkpt>
      <trkpt lat="36.950104" lon="-3.326682">
        <ele>1603.1</ele>
        <time>2021-09-04T10:30:42Z</time>
      </trkpt>
      <trkpt lat="36.950002" lon="-3.326479">
        <ele>1598.8</ele>
        <time>2021-09-04T10:30:58Z</time>
      </trkpt>
      <trkpt lat="36.949860" lon="-3.326300">
        <ele>1594.0</ele>
        <time>2021-09-04T10:31:28Z</time>
      </trkpt>
      <trkpt lat="36.949817" lon="-3.326101">
        <ele>1588.7</ele>
        <time>2021-09-04T10:31:49Z</time>
      </trkpt>
      <trkpt lat="36.949783" lon="-3.325853">
        <ele>1584.9</ele>
        <time>2021-09-04T10:32:11Z</time>
      </trkpt>
      <trkpt lat="36.949725" lon="-3.325595">
        <ele>1579.1</ele>
        <time>2021-09-04T10:32:30Z</time>
      </trkpt>
      <trkpt lat="36.949674" lon="-3.325355">
        <ele>1572.4</ele>
        <time>2021-09-04T10:32:53Z</time>
      </trkpt>
      <trkpt lat="36.949739" lon="-3.325147">
        <ele>1566.1</ele>
        <time>2021-09-04T10:33:18Z</time>
      </trkpt>
      <trkpt lat="36.949694" lon="-3.324926">
        <ele>1556.5</ele>
        <time>2021-09-04T10:33:41Z</time>
      </trkpt>
      <trkpt lat="36.949532" lon="-3.324780">
        <ele>1553.1</ele>
        <time>2021-09-04T10:34:09Z</time>
      </trkpt>
      <trkpt lat="36.949310" lon="-3.324821">
        <ele>1548.3</ele>
        <time>2021-09-04T10:34:31Z</time>
      </trkpt>
      <trkpt lat="36.949099" lon="-3.324776">
        <ele>1542.6</ele>
        <time>2021-09-04T10:34:50Z</time>
      </trkpt>
      <trkpt lat="36.948868" lon="-3.324796">
        <ele>1536.3</ele>
        <time>2021-09-04T10:35:10Z</time>
      </trkpt>
      <trkpt lat="36.948627" lon="-3.324769">
        <ele>1532.0</ele>
        <time>2021-09-04T10:35:29Z</time>
      </trkpt>
      <trkpt lat="36.948391" lon="-3.324739">
        <ele>1528.6</ele>
        <time>2021-09-04T10:35:45Z</time>
      </trkpt>
      <trkpt lat="36.948178" lon="-3.324695">
        <ele>1523.3</ele>
        <time>2021-09-04T10:36:03Z</time>
      </trkpt>
      <trkpt lat="36.947967" lon="-3.324633">
        <ele>1518.5</ele>
        <time>2021-09-04T10:36:20Z</time>
      </trkpt>
      <trkpt lat="36.947746" lon="-3.324643">
        <ele>1515.2</ele>
        <time>2021-09-04T10:36:43Z</time>
      </trkpt>
      <trkpt lat="36.947542" lon="-3.324712">
        <ele>1509.9</ele>
        <time>2021-09-04T10:37:03Z</time>
      </trkpt>
      <trkpt lat="36.947415" lon="-3.324491">
        <ele>1506.0</ele>
        <time>2021-09-04T10:37:47Z</time>
      </trkpt>
      <trkpt lat="36.947274" lon="-3.324433">
        <ele>1501.2</ele>
        <time>2021-09-04T10:38:19Z</time>
      </trkpt>
      <trkpt lat="36.947036" lon="-3.324573">
        <ele>1498.4</ele>
        <time>2021-09-04T10:38:40Z</time>
      </trkpt>
      <trkpt lat="36.946823" lon="-3.324624">
        <ele>1492.6</ele>
        <time>2021-09-04T10:39:12Z</time>
      </trkpt>
      <trkpt lat="36.946644" lon="-3.324511">
        <ele>1486.3</ele>
        <time>2021-09-04T10:39:46Z</time>
      </trkpt>
      <trkpt lat="36.946383" lon="-3.324484">
        <ele>1481.5</ele>
        <time>2021-09-04T10:40:14Z</time>
      </trkpt>
      <trkpt lat="36.946150" lon="-3.324538">
        <ele>1479.1</ele>
        <time>2021-09-04T10:41:47Z</time>
      </trkpt>
      <trkpt lat="36.946024" lon="-3.324473">
        <ele>1475.3</ele>
        <time>2021-09-04T10:43:38Z</time>
      </trkpt>
      <trkpt lat="36.945785" lon="-3.324252">
        <ele>1468.6</ele>
        <time>2021-09-04T10:45:15Z</time>
      </trkpt>
      <trkpt lat="36.945686" lon="-3.323970">
        <ele>1460.9</ele>
        <time>2021-09-04T10:45:45Z</time>
      </trkpt>
      <trkpt lat="36.945492" lon="-3.323846">
        <ele>1457.5</ele>
        <time>2021-09-04T10:46:16Z</time>
      </trkpt>
      <trkpt lat="36.945343" lon="-3.323591">
        <ele>1452.2</ele>
        <time>2021-09-04T10:47:05Z</time>
      </trkpt>
      <trkpt lat="36.945200" lon="-3.323369">
        <ele>1449.8</ele>
        <time>2021-09-04T10:47:58Z</time>
      </trkpt>
      <trkpt lat="36.945061" lon="-3.323200">
        <ele>1446.9</ele>
        <time>2021-09-04T10:48:29Z</time>
      </trkpt>
      <trkpt lat="36.944933" lon="-3.322997">
        <ele>1441.6</ele>
        <time>2021-09-04T10:48:55Z</time>
      </trkpt>
      <trkpt lat="36.944759" lon="-3.322769">
        <ele>1436.3</ele>
        <time>2021-09-04T10:49:46Z</time>
      </trkpt>
      <trkpt lat="36.944698" lon="-3.322565">
        <ele>1430.1</ele>
        <time>2021-09-04T10:50:17Z</time>
      </trkpt>
      <trkpt lat="36.944537" lon="-3.322674">
        <ele>1425.8</ele>
        <time>2021-09-04T10:51:10Z</time>
      </trkpt>
      <trkpt lat="36.944369" lon="-3.322527">
        <ele>1415.2</ele>
        <time>2021-09-04T10:52:00Z</time>
      </trkpt>
      <trkpt lat="36.944249" lon="-3.322691">
        <ele>1410.9</ele>
        <time>2021-09-04T10:52:26Z</time>
      </trkpt>
      <trkpt lat="36.944135" lon="-3.323031">
        <ele>1407.5</ele>
        <time>2021-09-04T10:52:59Z</time>
      </trkpt>
      <trkpt lat="36.944058" lon="-3.323266">
        <ele>1403.2</ele>
        <time>2021-09-04T10:53:25Z</time>
      </trkpt>
      <trkpt lat="36.944105" lon="-3.323504">
        <ele>1400.8</ele>
        <time>2021-09-04T10:53:42Z</time>
      </trkpt>
      <trkpt lat="36.944121" lon="-3.323751">
        <ele>1399.8</ele>
        <time>2021-09-04T10:53:57Z</time>
      </trkpt>
      <trkpt lat="36.944069" lon="-3.323976">
        <ele>1398.9</ele>
        <time>2021-09-04T10:54:12Z</time>
      </trkpt>
      <trkpt lat="36.943932" lon="-3.324172">
        <ele>1397.9</ele>
        <time>2021-09-04T10:54:28Z</time>
      </trkpt>
      <trkpt lat="36.943774" lon="-3.324357">
        <ele>1396.0</ele>
        <time>2021-09-04T10:54:46Z</time>
      </trkpt>
      <trkpt lat="36.943646" lon="-3.324526">
        <ele>1393.1</ele>
        <time>2021-09-04T10:55:01Z</time>
      </trkpt>
      <trkpt lat="36.943521" lon="-3.324713">
        <ele>1392.6</ele>
        <time>2021-09-04T10:55:16Z</time>
      </trkpt>
      <trkpt lat="36.943430" lon="-3.324932">
        <ele>1390.2</ele>
        <time>2021-09-04T10:55:31Z</time>
      </trkpt>
      <trkpt lat="36.943313" lon="-3.325115">
        <ele>1384.9</ele>
        <time>2021-09-04T10:55:46Z</time>
      </trkpt>
      <trkpt lat="36.943173" lon="-3.325312">
        <ele>1380.1</ele>
        <time>2021-09-04T10:56:02Z</time>
      </trkpt>
      <trkpt lat="36.942989" lon="-3.325507">
        <ele>1378.7</ele>
        <time>2021-09-04T10:56:19Z</time>
      </trkpt>
      <trkpt lat="36.942795" lon="-3.325633">
        <ele>1373.9</ele>
        <time>2021-09-04T10:56:36Z</time>
      </trkpt>
      <trkpt lat="36.942664" lon="-3.325805">
        <ele>1370.5</ele>
        <time>2021-09-04T10:56:51Z</time>
      </trkpt>
      <trkpt lat="36.942570" lon="-3.326031">
        <ele>1367.1</ele>
        <time>2021-09-04T10:57:08Z</time>
      </trkpt>
      <trkpt lat="36.942434" lon="-3.326268">
        <ele>1363.8</ele>
        <time>2021-09-04T10:57:27Z</time>
      </trkpt>
      <trkpt lat="36.942241" lon="-3.326114">
        <ele>1361.8</ele>
        <time>2021-09-04T10:58:03Z</time>
      </trkpt>
      <trkpt lat="36.942188" lon="-3.326060">
        <ele>1362.8</ele>
        <time>2021-09-04T10:58:27Z</time>
      </trkpt>
      <trkpt lat="36.942348" lon="-3.326224">
        <ele>1361.4</ele>
        <time>2021-09-04T10:58:45Z</time>
      </trkpt>
      <trkpt lat="36.942274" lon="-3.326521">
        <ele>1363.8</ele>
        <time>2021-09-04T10:59:10Z</time>
      </trkpt>
      <trkpt lat="36.942117" lon="-3.326745">
        <ele>1361.4</ele>
        <time>2021-09-04T11:00:05Z</time>
      </trkpt>
      <trkpt lat="36.942003" lon="-3.326692">
        <ele>1359.9</ele>
        <time>2021-09-04T11:00:55Z</time>
      </trkpt>
      <trkpt lat="36.941821" lon="-3.326521">
        <ele>1352.2</ele>
        <time>2021-09-04T11:01:21Z</time>
      </trkpt>
      <trkpt lat="36.941596" lon="-3.326296">
        <ele>1348.4</ele>
        <time>2021-09-04T11:01:40Z</time>
      </trkpt>
      <trkpt lat="36.941385" lon="-3.326146">
        <ele>1343.6</ele>
        <time>2021-09-04T11:02:50Z</time>
      </trkpt>
      <trkpt lat="36.941191" lon="-3.326036">
        <ele>1341.2</ele>
        <time>2021-09-04T11:03:10Z</time>
      </trkpt>
      <trkpt lat="36.941088" lon="-3.325828">
        <ele>1338.8</ele>
        <time>2021-09-04T11:03:26Z</time>
      </trkpt>
      <trkpt lat="36.940947" lon="-3.325662">
        <ele>1334.0</ele>
        <time>2021-09-04T11:03:48Z</time>
      </trkpt>
      <trkpt lat="36.940744" lon="-3.325654">
        <ele>1329.2</ele>
        <time>2021-09-04T11:04:04Z</time>
      </trkpt>
      <trkpt lat="36.940735" lon="-3.325451">
        <ele>1324.4</ele>
        <time>2021-09-04T11:04:23Z</time>
      </trkpt>
      <trkpt lat="36.940650" lon="-3.325248">
        <ele>1318.1</ele>
        <time>2021-09-04T11:04:46Z</time>
      </trkpt>
      <trkpt lat="36.940436" lon="-3.325099">
        <ele>1308.0</ele>
        <time>2021-09-04T11:05:06Z</time>
      </trkpt>
      <trkpt lat="36.940248" lon="-3.324987">
        <ele>1308.5</ele>
        <time>2021-09-04T11:05:24Z</time>
      </trkpt>
      <trkpt lat="36.939988" lon="-3.324979">
        <ele>1304.2</ele>
        <time>2021-09-04T11:05:50Z</time>
      </trkpt>
      <trkpt lat="36.939711" lon="-3.324917">
        <ele>1296.5</ele>
        <time>2021-09-04T11:06:23Z</time>
      </trkpt>
      <trkpt lat="36.939609" lon="-3.324626">
        <ele>1290.7</ele>
        <time>2021-09-04T11:06:46Z</time>
      </trkpt>
      <trkpt lat="36.939407" lon="-3.324342">
        <ele>1285.4</ele>
        <time>2021-09-04T11:07:02Z</time>
      </trkpt>
      <trkpt lat="36.939269" lon="-3.324122">
        <ele>1284.0</ele>
        <time>2021-09-04T11:07:17Z</time>
      </trkpt>
      <trkpt lat="36.939239" lon="-3.323862">
        <ele>1280.6</ele>
        <time>2021-09-04T11:07:32Z</time>
      </trkpt>
      <trkpt lat="36.939181" lon="-3.323567">
        <ele>1277.7</ele>
        <time>2021-09-04T11:07:45Z</time>
      </trkpt>
      <trkpt lat="36.939246" lon="-3.323378">
        <ele>1275.8</ele>
        <time>2021-09-04T11:08:07Z</time>
      </trkpt>
      <trkpt lat="36.939150" lon="-3.323104">
        <ele>1273.4</ele>
        <time>2021-09-04T11:08:23Z</time>
      </trkpt>
      <trkpt lat="36.939044" lon="-3.322850">
        <ele>1271.0</ele>
        <time>2021-09-04T11:08:40Z</time>
      </trkpt>
      <trkpt lat="36.938851" lon="-3.322787">
        <ele>1268.6</ele>
        <time>2021-09-04T11:08:57Z</time>
      </trkpt>
      <trkpt lat="36.938626" lon="-3.322776">
        <ele>1265.2</ele>
        <time>2021-09-04T11:09:15Z</time>
      </trkpt>
      <trkpt lat="36.938403" lon="-3.322716">
        <ele>1264.8</ele>
        <time>2021-09-04T11:09:35Z</time>
      </trkpt>
      <trkpt lat="36.938216" lon="-3.322594">
        <ele>1261.4</ele>
        <time>2021-09-04T11:09:52Z</time>
      </trkpt>
      <trkpt lat="36.937997" lon="-3.322447">
        <ele>1260.4</ele>
        <time>2021-09-04T11:10:09Z</time>
      </trkpt>
      <trkpt lat="36.937790" lon="-3.322280">
        <ele>1258.5</ele>
        <time>2021-09-04T11:10:25Z</time>
      </trkpt>
      <trkpt lat="36.937598" lon="-3.322281">
        <ele>1259.0</ele>
        <time>2021-09-04T11:10:41Z</time>
      </trkpt>
      <trkpt lat="36.937472" lon="-3.322455">
        <ele>1257.1</ele>
        <time>2021-09-04T11:10:57Z</time>
      </trkpt>
      <trkpt lat="36.937370" lon="-3.322665">
        <ele>1254.2</ele>
        <time>2021-09-04T11:11:12Z</time>
      </trkpt>
      <trkpt lat="36.937314" lon="-3.322885">
        <ele>1252.3</ele>
        <time>2021-09-04T11:11:26Z</time>
      </trkpt>
      <trkpt lat="36.937228" lon="-3.323157">
        <ele>1250.3</ele>
        <time>2021-09-04T11:11:43Z</time>
      </trkpt>
      <trkpt lat="36.937113" lon="-3.323423">
        <ele>1247.9</ele>
        <time>2021-09-04T11:12:00Z</time>
      </trkpt>
      <trkpt lat="36.936969" lon="-3.323642">
        <ele>1247.0</ele>
        <time>2021-09-04T11:12:21Z</time>
      </trkpt>
      <trkpt lat="36.936955" lon="-3.323659">
        <ele>1247.0</ele>
        <time>2021-09-04T11:12:27Z</time>
      </trkpt>
    </trkseg>
  </trk>
</gpx>
